Detalii statie SCHWAB AGRO ARDUD [00001CF5]

Toti senzorii

Date Temperatura solului [C]Precipitatii [mm]Voltaj baterie [mV]Leaf Wetness [Min]HC Air temperature [C]HC Relative humidity [%]Punctul de roua [C]
medieminmaxsumaultimatimpmedieminmaxmediemediemin
2018-08-12 11:00:00 0 6766 28.79 26.6 30.12 99.43 28.6 26.6
2018-08-12 12:00:00 0 6776 29.65 28.31 31.43 95.14 28.6 27.9
2018-08-12 13:00:00 0 6776 30.18 28.38 31.97 91.04 28.4 27.1
2018-08-12 14:00:00 0 6786 31.49 29.31 32.64 84.54 28.4 27.2
2018-08-12 15:00:00 0 6796 32.21 30.3 33 80.7 28.2 27.5
2018-08-12 16:00:00 0 6806 31.22 29.77 32.43 79.42 27 25.9
2018-08-12 17:00:00 0 6796 32.27 31.72 32.87 73.76 26.8 26
2018-08-12 18:00:00 0 6786 30.48 29.83 31.93 73.91 25.1 24.6
2018-08-12 19:00:00 0 6786 29.06 28.11 29.76 80.29 25.1 24.8
2018-08-12 20:00:00 0 6766 26.71 24.88 28.15 87.52 24.3 23.4
2018-08-12 21:00:00 0 6776 22.27 21.12 24.16 99.63 22.1 21.1
2018-08-12 22:00:00 0 6766 20.24 19.28 21.22 100 20.2 19.2
2018-08-12 23:00:00 0 6776 18.75 18.09 19.32 100 18.6 18
2018-08-13 00:00:00 0 6766 17.63 17.15 18.03 100 17.5 17.1
2018-08-13 01:00:00 0 6766 16.74 16.36 17.09 100 16.6 16.3
2018-08-13 02:00:00 0 6766 16.22 16.1 16.35 100 16.1 16.1
2018-08-13 03:00:00 0 6756 15.84 15.73 16.11 100 15.8 15.7
2018-08-13 04:00:00 0 6766 15.6 15.45 15.77 100 15.5 15.4
2018-08-13 05:00:00 0 6766 15.32 14.98 15.66 100 15.2 14.9
2018-08-13 06:00:00 0 6756 15.9 15.1 17.54 100 15.8 15.1
2018-08-13 07:00:00 0 6756 20.24 18.22 22.33 100 20.1 18.2
2018-08-13 08:00:00 0 6748 24.3 22.57 25.13 100 24.2 22.5
2018-08-13 09:00:00 0 6748 26.78 25.77 28.82 98.99 26.5 25.7
2018-08-13 10:00:00 0 6748 29.22 28.36 30.18 94.84 28.1 27.1
2018-08-13 11:00:00 0 6766 30.75 29.36 32.35 90.44 28.8 27.9
2018-08-13 12:00:00 0 6786 32.79 32.23 33.48 82.63 29.2 28.5
2018-08-13 13:00:00 0 6786 32.7 30.67 33.94 79.34 28.4 26.3
2018-08-13 14:00:00 0 6786 33.5 32.15 34.27 78.26 29 28
2018-08-13 15:00:00 0 6796 33.34 31.29 35 78.42 28.9 27.5
2018-08-13 16:00:00 0 6796 33.56 33.14 34.21 76.1 28.6 27.8
2018-08-13 17:00:00 0 6776 31.53 29.87 34.59 83.34 28.1 26.6
2018-08-13 18:00:00 0 6776 30.2 29.71 31.14 90.06 28.2 27.8
2018-08-13 19:00:00 0 6766 29.36 28.83 29.91 90.85 27.5 27.1
2018-08-13 20:00:00 0 6766 27.67 26.57 28.89 91.96 26.1 25.2
2018-08-13 21:00:00 0 6766 23.71 22.9 25.83 99.94 23.6 22.9
2018-08-13 22:00:00 0 6766 21.65 21.02 22.63 100 21.5 21
2018-08-13 23:00:00 0 6766 20.48 19.95 20.86 100 20.4 19.9
2018-08-14 00:00:00 0 6766 19.6 19.18 19.93 100 19.5 19.1
2018-08-14 01:00:00 0 6766 19.7 19.37 19.99 100 19.6 19.3
2018-08-14 02:00:00 0 6766 19.87 19.44 20.8 100 19.8 19.4
2018-08-14 03:00:00 0 6756 20.78 20.06 21.37 100 20.7 20
2018-08-14 04:00:00 0 6766 19.73 18.97 20.06 100 19.6 18.9
2018-08-14 05:00:00 0 6756 19.06 18.71 19.32 100 19 18.7
2018-08-14 06:00:00 0 6748 18.8 18.41 19.62 100 18.7 18.4
2018-08-14 07:00:00 0 6748 21.13 19.87 22.82 100 21 19.8
2018-08-14 08:00:00 0 6738 25.61 22.82 27.4 99.93 25.5 22.8
2018-08-14 09:00:00 0 6748 28.78 27.61 29.88 93.37 27.4 26.6
2018-08-14 10:00:00 0 6756 30.68 29.53 32.54 87 28.1 26.9